sensor_id;sensor_type;location;lat;lon;timestamp;P1;durP1;ratioP1;P2;durP2;ratioP2
13687;SDS011;6916;51.504;7.416;2022-12-20T00:01:50;2.07;;;1.33;;
13687;SDS011;6916;51.504;7.416;2022-12-20T00:07:12;1.73;;;1.33;;
13687;SDS011;6916;51.504;7.416;2022-12-20T00:12:35;1.80;;;1.20;;
13687;SDS011;6916;51.504;7.416;2022-12-20T00:17:57;2.70;;;1.20;;
13687;SDS011;6916;51.504;7.416;2022-12-20T00:23:19;2.57;;;0.90;;
13687;SDS011;6916;51.504;7.416;2022-12-20T00:28:41;1.60;;;1.10;;
13687;SDS011;6916;51.504;7.416;2022-12-20T00:34:04;2.00;;;1.17;;
13687;SDS011;6916;51.504;7.416;2022-12-20T00:39:26;2.77;;;1.13;;
13687;SDS011;6916;51.504;7.416;2022-12-20T00:44:48;2.97;;;1.07;;
13687;SDS011;6916;51.504;7.416;2022-12-20T00:50:10;0.97;;;0.87;;
13687;SDS011;6916;51.504;7.416;2022-12-20T00:55:32;2.70;;;1.00;;
13687;SDS011;6916;51.504;7.416;2022-12-20T01:00:54;2.17;;;1.10;;
13687;SDS011;6916;51.504;7.416;2022-12-20T01:06:16;1.77;;;0.83;;
13687;SDS011;6916;51.504;7.416;2022-12-20T01:11:39;2.00;;;0.90;;
13687;SDS011;6916;51.504;7.416;2022-12-20T01:17:01;1.97;;;1.10;;
13687;SDS011;6916;51.504;7.416;2022-12-20T01:22:23;3.60;;;0.93;;
13687;SDS011;6916;51.504;7.416;2022-12-20T01:27:45;1.20;;;1.10;;
13687;SDS011;6916;51.504;7.416;2022-12-20T01:33:08;1.73;;;1.13;;
13687;SDS011;6916;51.504;7.416;2022-12-20T01:38:31;1.23;;;1.13;;
13687;SDS011;6916;51.504;7.416;2022-12-20T01:43:58;2.17;;;1.10;;
13687;SDS011;6916;51.504;7.416;2022-12-20T01:49:27;2.03;;;0.90;;
13687;SDS011;6916;51.504;7.416;2022-12-20T01:54:53;1.50;;;1.13;;
13687;SDS011;6916;51.504;7.416;2022-12-20T02:00:24;2.03;;;1.17;;
13687;SDS011;6916;51.504;7.416;2022-12-20T02:05:47;3.20;;;1.20;;
13687;SDS011;6916;51.504;7.416;2022-12-20T02:16:53;1.53;;;1.20;;
13687;SDS011;6916;51.504;7.416;2022-12-20T02:33:41;1.73;;;1.00;;
13687;SDS011;6916;51.504;7.416;2022-12-20T02:39:04;1.20;;;0.90;;
13687;SDS011;6916;51.504;7.416;2022-12-20T02:44:27;1.53;;;1.30;;
13687;SDS011;6916;51.504;7.416;2022-12-20T02:50:08;5.00;;;1.10;;
13687;SDS011;6916;51.504;7.416;2022-12-20T02:55:40;2.27;;;1.50;;
13687;SDS011;6916;51.504;7.416;2022-12-20T03:01:13;1.93;;;1.30;;
13687;SDS011;6916;51.504;7.416;2022-12-20T03:06:39;2.37;;;1.30;;
13687;SDS011;6916;51.504;7.416;2022-12-20T03:12:18;2.30;;;1.20;;
13687;SDS011;6916;51.504;7.416;2022-12-20T03:17:40;2.97;;;1.40;;
13687;SDS011;6916;51.504;7.416;2022-12-20T03:23:02;2.27;;;1.10;;
13687;SDS011;6916;51.504;7.416;2022-12-20T03:28:25;2.77;;;1.20;;
13687;SDS011;6916;51.504;7.416;2022-12-20T03:33:52;3.70;;;1.30;;
13687;SDS011;6916;51.504;7.416;2022-12-20T03:39:14;3.23;;;1.27;;
13687;SDS011;6916;51.504;7.416;2022-12-20T03:44:37;2.50;;;1.40;;
13687;SDS011;6916;51.504;7.416;2022-12-20T03:50:01;2.00;;;1.83;;
13687;SDS011;6916;51.504;7.416;2022-12-20T03:55:24;2.23;;;1.50;;
13687;SDS011;6916;51.504;7.416;2022-12-20T04:00:49;1.60;;;1.20;;
13687;SDS011;6916;51.504;7.416;2022-12-20T04:06:15;3.10;;;1.70;;
13687;SDS011;6916;51.504;7.416;2022-12-20T04:11:38;2.27;;;1.30;;
13687;SDS011;6916;51.504;7.416;2022-12-20T04:17:01;2.70;;;1.50;;
13687;SDS011;6916;51.504;7.416;2022-12-20T04:22:24;1.17;;;1.07;;
13687;SDS011;6916;51.504;7.416;2022-12-20T04:27:46;2.80;;;1.90;;
13687;SDS011;6916;51.504;7.416;2022-12-20T04:33:08;2.53;;;1.40;;
13687;SDS011;6916;51.504;7.416;2022-12-20T04:38:31;2.30;;;1.53;;
13687;SDS011;6916;51.504;7.416;2022-12-20T04:43:54;4.27;;;1.80;;
13687;SDS011;6916;51.504;7.416;2022-12-20T04:49:18;2.43;;;1.63;;
13687;SDS011;6916;51.504;7.416;2022-12-20T04:54:40;1.83;;;1.60;;
13687;SDS011;6916;51.504;7.416;2022-12-20T05:00:06;2.17;;;1.50;;
13687;SDS011;6916;51.504;7.416;2022-12-20T05:05:36;2.57;;;1.43;;
13687;SDS011;6916;51.504;7.416;2022-12-20T05:10:59;2.93;;;1.70;;
13687;SDS011;6916;51.504;7.416;2022-12-20T05:16:22;2.60;;;1.30;;
13687;SDS011;6916;51.504;7.416;2022-12-20T05:21:44;6.50;;;2.47;;
13687;SDS011;6916;51.504;7.416;2022-12-20T05:27:39;2.40;;;1.87;;
13687;SDS011;6916;51.504;7.416;2022-12-20T05:33:06;2.83;;;1.97;;
13687;SDS011;6916;51.504;7.416;2022-12-20T05:38:29;3.13;;;1.87;;
13687;SDS011;6916;51.504;7.416;2022-12-20T05:43:53;4.20;;;2.10;;
13687;SDS011;6916;51.504;7.416;2022-12-20T05:49:19;4.43;;;2.27;;
13687;SDS011;6916;51.504;7.416;2022-12-20T05:54:45;3.20;;;1.70;;
13687;SDS011;6916;51.504;7.416;2022-12-20T06:00:08;2.07;;;1.70;;
13687;SDS011;6916;51.504;7.416;2022-12-20T06:05:31;2.70;;;1.60;;
13687;SDS011;6916;51.504;7.416;2022-12-20T06:11:00;4.37;;;2.00;;
13687;SDS011;6916;51.504;7.416;2022-12-20T06:16:30;2.50;;;1.83;;
13687;SDS011;6916;51.504;7.416;2022-12-20T06:21:53;2.27;;;1.63;;
13687;SDS011;6916;51.504;7.416;2022-12-20T06:27:19;3.27;;;1.60;;
13687;SDS011;6916;51.504;7.416;2022-12-20T06:32:49;2.63;;;1.87;;
13687;SDS011;6916;51.504;7.416;2022-12-20T06:38:11;1.73;;;1.60;;
13687;SDS011;6916;51.504;7.416;2022-12-20T06:43:33;3.30;;;1.80;;
13687;SDS011;6916;51.504;7.416;2022-12-20T06:48:56;3.17;;;1.77;;
13687;SDS011;6916;51.504;7.416;2022-12-20T06:54:19;4.40;;;1.73;;
13687;SDS011;6916;51.504;7.416;2022-12-20T06:59:41;2.30;;;1.63;;
13687;SDS011;6916;51.504;7.416;2022-12-20T07:05:04;3.40;;;1.40;;
13687;SDS011;6916;51.504;7.416;2022-12-20T07:10:26;2.47;;;1.47;;
13687;SDS011;6916;51.504;7.416;2022-12-20T07:15:48;3.33;;;1.67;;
13687;SDS011;6916;51.504;7.416;2022-12-20T07:21:10;1.33;;;1.23;;
13687;SDS011;6916;51.504;7.416;2022-12-20T07:26:34;2.40;;;1.37;;
13687;SDS011;6916;51.504;7.416;2022-12-20T07:31:56;1.30;;;1.17;;
13687;SDS011;6916;51.504;7.416;2022-12-20T07:37:19;1.37;;;1.07;;
13687;SDS011;6916;51.504;7.416;2022-12-20T07:42:41;1.53;;;1.13;;
13687;SDS011;6916;51.504;7.416;2022-12-20T07:48:03;1.87;;;1.33;;
13687;SDS011;6916;51.504;7.416;2022-12-20T07:53:26;2.23;;;1.17;;
13687;SDS011;6916;51.504;7.416;2022-12-20T07:58:49;1.33;;;0.90;;
13687;SDS011;6916;51.504;7.416;2022-12-20T08:04:13;2.10;;;1.17;;
13687;SDS011;6916;51.504;7.416;2022-12-20T08:09:39;3.03;;;1.17;;
13687;SDS011;6916;51.504;7.416;2022-12-20T08:15:02;3.07;;;1.03;;
13687;SDS011;6916;51.504;7.416;2022-12-20T08:20:25;1.03;;;0.93;;
13687;SDS011;6916;51.504;7.416;2022-12-20T08:25:47;1.83;;;1.03;;
13687;SDS011;6916;51.504;7.416;2022-12-20T08:31:09;2.67;;;1.20;;
13687;SDS011;6916;51.504;7.416;2022-12-20T08:36:33;3.43;;;1.30;;
13687;SDS011;6916;51.504;7.416;2022-12-20T08:41:55;1.53;;;0.90;;
13687;SDS011;6916;51.504;7.416;2022-12-20T08:47:17;2.07;;;0.87;;
13687;SDS011;6916;51.504;7.416;2022-12-20T08:52:40;1.40;;;1.00;;
13687;SDS011;6916;51.504;7.416;2022-12-20T08:58:02;1.07;;;0.67;;
13687;SDS011;6916;51.504;7.416;2022-12-20T09:03:24;2.27;;;0.90;;
13687;SDS011;6916;51.504;7.416;2022-12-20T09:08:47;2.37;;;1.00;;
13687;SDS011;6916;51.504;7.416;2022-12-20T09:14:10;2.80;;;0.80;;
13687;SDS011;6916;51.504;7.416;2022-12-20T09:19:32;3.13;;;1.00;;
13687;SDS011;6916;51.504;7.416;2022-12-20T09:24:55;1.07;;;0.90;;
13687;SDS011;6916;51.504;7.416;2022-12-20T09:30:17;1.57;;;0.80;;
13687;SDS011;6916;51.504;7.416;2022-12-20T09:35:43;3.10;;;1.53;;
13687;SDS011;6916;51.504;7.416;2022-12-20T09:41:15;2.73;;;1.43;;
13687;SDS011;6916;51.504;7.416;2022-12-20T09:47:17;1.07;;;0.90;;
13687;SDS011;6916;51.504;7.416;2022-12-20T09:52:57;1.33;;;0.73;;
13687;SDS011;6916;51.504;7.416;2022-12-20T10:04:23;2.00;;;0.90;;
13687;SDS011;6916;51.504;7.416;2022-12-20T10:15:19;2.43;;;1.10;;
13687;SDS011;6916;51.504;7.416;2022-12-20T10:20:57;1.77;;;0.60;;
13687;SDS011;6916;51.504;7.416;2022-12-20T10:26:24;3.60;;;0.70;;
13687;SDS011;6916;51.504;7.416;2022-12-20T10:31:51;1.83;;;0.70;;
13687;SDS011;6916;51.504;7.416;2022-12-20T10:37:16;2.07;;;0.70;;
13687;SDS011;6916;51.504;7.416;2022-12-20T10:42:39;2.97;;;1.00;;
13687;SDS011;6916;51.504;7.416;2022-12-20T10:48:06;3.37;;;0.67;;
13687;SDS011;6916;51.504;7.416;2022-12-20T10:53:53;1.43;;;0.73;;
13687;SDS011;6916;51.504;7.416;2022-12-20T10:59:33;2.10;;;0.90;;
13687;SDS011;6916;51.504;7.416;2022-12-20T11:10:25;2.37;;;1.60;;
13687;SDS011;6916;51.504;7.416;2022-12-20T11:15:49;2.40;;;0.80;;
13687;SDS011;6916;51.504;7.416;2022-12-20T11:21:15;2.30;;;1.20;;
13687;SDS011;6916;51.504;7.416;2022-12-20T11:55:31;1.60;;;0.80;;
13687;SDS011;6916;51.504;7.416;2022-12-20T12:01:06;1.60;;;0.80;;
13687;SDS011;6916;51.504;7.416;2022-12-20T12:06:35;4.23;;;1.20;;
13687;SDS011;6916;51.504;7.416;2022-12-20T12:12:01;2.73;;;0.87;;
13687;SDS011;6916;51.504;7.416;2022-12-20T12:17:33;2.93;;;0.80;;
13687;SDS011;6916;51.504;7.416;2022-12-20T12:23:04;5.27;;;1.50;;
13687;SDS011;6916;51.504;7.416;2022-12-20T12:28:57;2.10;;;0.80;;
13687;SDS011;6916;51.504;7.416;2022-12-20T12:34:26;2.80;;;1.00;;
13687;SDS011;6916;51.504;7.416;2022-12-20T12:45:56;1.43;;;0.97;;
13687;SDS011;6916;51.504;7.416;2022-12-20T12:51:24;1.27;;;1.00;;
13687;SDS011;6916;51.504;7.416;2022-12-20T12:56:49;1.90;;;0.90;;
13687;SDS011;6916;51.504;7.416;2022-12-20T13:12:59;5.20;;;1.30;;
13687;SDS011;6916;51.504;7.416;2022-12-20T13:18:23;1.17;;;0.90;;
13687;SDS011;6916;51.504;7.416;2022-12-20T13:23:46;2.00;;;1.20;;
13687;SDS011;6916;51.504;7.416;2022-12-20T13:29:25;4.97;;;1.33;;
13687;SDS011;6916;51.504;7.416;2022-12-20T13:34:53;2.60;;;1.30;;
13687;SDS011;6916;51.504;7.416;2022-12-20T13:40:20;3.13;;;1.10;;
13687;SDS011;6916;51.504;7.416;2022-12-20T13:51:32;2.40;;;1.60;;
13687;SDS011;6916;51.504;7.416;2022-12-20T13:56:54;2.10;;;1.30;;
13687;SDS011;6916;51.504;7.416;2022-12-20T14:02:18;3.77;;;1.60;;
13687;SDS011;6916;51.504;7.416;2022-12-20T14:07:42;2.77;;;1.70;;
13687;SDS011;6916;51.504;7.416;2022-12-20T14:13:21;5.30;;;1.93;;
13687;SDS011;6916;51.504;7.416;2022-12-20T14:18:48;5.27;;;1.63;;
13687;SDS011;6916;51.504;7.416;2022-12-20T14:24:19;2.80;;;1.20;;
13687;SDS011;6916;51.504;7.416;2022-12-20T14:29:44;2.63;;;1.20;;
13687;SDS011;6916;51.504;7.416;2022-12-20T14:35:17;3.23;;;1.70;;
13687;SDS011;6916;51.504;7.416;2022-12-20T14:40:41;3.07;;;1.70;;
13687;SDS011;6916;51.504;7.416;2022-12-20T14:46:08;2.60;;;1.50;;
13687;SDS011;6916;51.504;7.416;2022-12-20T14:51:40;5.47;;;2.10;;
13687;SDS011;6916;51.504;7.416;2022-12-20T14:57:02;3.03;;;1.57;;
13687;SDS011;6916;51.504;7.416;2022-12-20T15:08:27;5.27;;;1.70;;
13687;SDS011;6916;51.504;7.416;2022-12-20T15:13:51;4.53;;;2.00;;
13687;SDS011;6916;51.504;7.416;2022-12-20T15:19:15;4.60;;;2.13;;
13687;SDS011;6916;51.504;7.416;2022-12-20T15:24:37;5.63;;;2.13;;
13687;SDS011;6916;51.504;7.416;2022-12-20T15:29:59;5.23;;;2.20;;
13687;SDS011;6916;51.504;7.416;2022-12-20T15:35:22;4.97;;;2.30;;
13687;SDS011;6916;51.504;7.416;2022-12-20T15:40:46;3.83;;;2.60;;
13687;SDS011;6916;51.504;7.416;2022-12-20T15:46:09;3.53;;;2.40;;
13687;SDS011;6916;51.504;7.416;2022-12-20T15:56:54;4.40;;;2.50;;
13687;SDS011;6916;51.504;7.416;2022-12-20T16:02:25;5.00;;;2.60;;
13687;SDS011;6916;51.504;7.416;2022-12-20T16:07:48;6.73;;;2.93;;
13687;SDS011;6916;51.504;7.416;2022-12-20T16:13:14;4.40;;;2.40;;
13687;SDS011;6916;51.504;7.416;2022-12-20T16:18:38;5.57;;;2.50;;
13687;SDS011;6916;51.504;7.416;2022-12-20T16:24:00;4.13;;;3.13;;
13687;SDS011;6916;51.504;7.416;2022-12-20T16:29:23;2.13;;;1.70;;
13687;SDS011;6916;51.504;7.416;2022-12-20T16:34:49;3.80;;;1.90;;
13687;SDS011;6916;51.504;7.416;2022-12-20T16:40:12;3.03;;;1.80;;
13687;SDS011;6916;51.504;7.416;2022-12-20T16:45:36;3.57;;;2.60;;
13687;SDS011;6916;51.504;7.416;2022-12-20T16:50:58;3.30;;;1.37;;
13687;SDS011;6916;51.504;7.416;2022-12-20T16:56:21;5.93;;;2.40;;
13687;SDS011;6916;51.504;7.416;2022-12-20T17:01:43;4.20;;;1.77;;
13687;SDS011;6916;51.504;7.416;2022-12-20T17:07:06;2.43;;;1.97;;
13687;SDS011;6916;51.504;7.416;2022-12-20T17:12:29;4.87;;;2.20;;
13687;SDS011;6916;51.504;7.416;2022-12-20T17:17:51;3.43;;;1.73;;
13687;SDS011;6916;51.504;7.416;2022-12-20T17:23:14;4.13;;;1.90;;
13687;SDS011;6916;51.504;7.416;2022-12-20T17:28:34;3.30;;;1.93;;
13687;SDS011;6916;51.504;7.416;2022-12-20T17:33:57;4.63;;;2.03;;
13687;SDS011;6916;51.504;7.416;2022-12-20T17:39:20;2.43;;;1.93;;
13687;SDS011;6916;51.504;7.416;2022-12-20T17:44:43;5.93;;;2.20;;
13687;SDS011;6916;51.504;7.416;2022-12-20T17:50:07;3.17;;;1.97;;
13687;SDS011;6916;51.504;7.416;2022-12-20T17:55:29;4.60;;;2.43;;
13687;SDS011;6916;51.504;7.416;2022-12-20T18:00:51;3.40;;;1.70;;
13687;SDS011;6916;51.504;7.416;2022-12-20T18:06:14;4.00;;;2.70;;
13687;SDS011;6916;51.504;7.416;2022-12-20T18:11:36;2.97;;;1.43;;
13687;SDS011;6916;51.504;7.416;2022-12-20T18:16:59;4.43;;;1.97;;
13687;SDS011;6916;51.504;7.416;2022-12-20T18:22:22;2.53;;;1.77;;
13687;SDS011;6916;51.504;7.416;2022-12-20T18:27:44;3.00;;;2.00;;
13687;SDS011;6916;51.504;7.416;2022-12-20T18:33:06;3.37;;;2.10;;
13687;SDS011;6916;51.504;7.416;2022-12-20T18:38:29;2.83;;;2.00;;
13687;SDS011;6916;51.504;7.416;2022-12-20T18:43:52;1.63;;;1.53;;
13687;SDS011;6916;51.504;7.416;2022-12-20T18:49:14;2.73;;;1.87;;
13687;SDS011;6916;51.504;7.416;2022-12-20T18:54:37;1.73;;;1.60;;
13687;SDS011;6916;51.504;7.416;2022-12-20T18:59:59;3.27;;;2.10;;
13687;SDS011;6916;51.504;7.416;2022-12-20T19:05:22;4.67;;;2.43;;
13687;SDS011;6916;51.504;7.416;2022-12-20T19:10:45;5.37;;;2.33;;
13687;SDS011;6916;51.504;7.416;2022-12-20T19:16:10;4.47;;;2.20;;
13687;SDS011;6916;51.504;7.416;2022-12-20T19:21:34;3.90;;;2.20;;
13687;SDS011;6916;51.504;7.416;2022-12-20T19:26:58;3.70;;;2.17;;
13687;SDS011;6916;51.504;7.416;2022-12-20T19:32:20;3.60;;;2.90;;
13687;SDS011;6916;51.504;7.416;2022-12-20T19:37:42;4.43;;;2.20;;
13687;SDS011;6916;51.504;7.416;2022-12-20T19:43:05;5.43;;;2.50;;
13687;SDS011;6916;51.504;7.416;2022-12-20T19:48:27;5.80;;;3.13;;
13687;SDS011;6916;51.504;7.416;2022-12-20T19:53:50;3.73;;;2.43;;
13687;SDS011;6916;51.504;7.416;2022-12-20T19:59:14;6.03;;;2.70;;
13687;SDS011;6916;51.504;7.416;2022-12-20T20:04:37;4.93;;;2.93;;
13687;SDS011;6916;51.504;7.416;2022-12-20T20:09:59;2.80;;;2.60;;
13687;SDS011;6916;51.504;7.416;2022-12-20T20:15:21;4.67;;;3.07;;
13687;SDS011;6916;51.504;7.416;2022-12-20T20:20:44;3.63;;;2.87;;
13687;SDS011;6916;51.504;7.416;2022-12-20T20:26:08;9.20;;;3.70;;
13687;SDS011;6916;51.504;7.416;2022-12-20T20:31:31;4.27;;;3.10;;
13687;SDS011;6916;51.504;7.416;2022-12-20T20:36:54;4.83;;;3.17;;
13687;SDS011;6916;51.504;7.416;2022-12-20T20:42:16;6.00;;;3.50;;
13687;SDS011;6916;51.504;7.416;2022-12-20T20:47:38;7.20;;;3.90;;
13687;SDS011;6916;51.504;7.416;2022-12-20T20:53:00;4.83;;;3.60;;
13687;SDS011;6916;51.504;7.416;2022-12-20T20:58:23;4.70;;;3.43;;
13687;SDS011;6916;51.504;7.416;2022-12-20T21:03:45;4.47;;;3.07;;
13687;SDS011;6916;51.504;7.416;2022-12-20T21:09:08;5.57;;;3.23;;
13687;SDS011;6916;51.504;7.416;2022-12-20T21:14:30;4.10;;;3.03;;
13687;SDS011;6916;51.504;7.416;2022-12-20T21:19:52;4.13;;;2.60;;
13687;SDS011;6916;51.504;7.416;2022-12-20T21:25:15;3.23;;;3.00;;
13687;SDS011;6916;51.504;7.416;2022-12-20T21:30:37;3.10;;;2.80;;
13687;SDS011;6916;51.504;7.416;2022-12-20T21:36:00;5.30;;;2.80;;
13687;SDS011;6916;51.504;7.416;2022-12-20T21:41:24;2.40;;;2.20;;
13687;SDS011;6916;51.504;7.416;2022-12-20T21:46:47;2.27;;;2.07;;
13687;SDS011;6916;51.504;7.416;2022-12-20T21:52:09;3.13;;;2.67;;
13687;SDS011;6916;51.504;7.416;2022-12-20T21:57:32;3.47;;;2.47;;
13687;SDS011;6916;51.504;7.416;2022-12-20T22:02:54;3.80;;;3.00;;
13687;SDS011;6916;51.504;7.416;2022-12-20T22:08:16;4.50;;;2.83;;
13687;SDS011;6916;51.504;7.416;2022-12-20T22:13:39;2.70;;;2.50;;
13687;SDS011;6916;51.504;7.416;2022-12-20T22:19:02;2.70;;;1.77;;
13687;SDS011;6916;51.504;7.416;2022-12-20T22:24:25;1.70;;;1.60;;
13687;SDS011;6916;51.504;7.416;2022-12-20T22:29:47;2.40;;;1.90;;
13687;SDS011;6916;51.504;7.416;2022-12-20T22:35:09;2.27;;;1.70;;
13687;SDS011;6916;51.504;7.416;2022-12-20T22:40:31;1.40;;;1.30;;
13687;SDS011;6916;51.504;7.416;2022-12-20T22:45:54;2.10;;;1.87;;
13687;SDS011;6916;51.504;7.416;2022-12-20T22:51:20;1.70;;;1.60;;
13687;SDS011;6916;51.504;7.416;2022-12-20T22:56:43;2.93;;;1.60;;
13687;SDS011;6916;51.504;7.416;2022-12-20T23:02:05;2.13;;;1.97;;
13687;SDS011;6916;51.504;7.416;2022-12-20T23:07:27;2.23;;;1.90;;
13687;SDS011;6916;51.504;7.416;2022-12-20T23:12:50;1.80;;;1.70;;
13687;SDS011;6916;51.504;7.416;2022-12-20T23:18:31;3.13;;;1.87;;
13687;SDS011;6916;51.504;7.416;2022-12-20T23:23:53;2.33;;;2.10;;
13687;SDS011;6916;51.504;7.416;2022-12-20T23:29:15;2.77;;;2.50;;
13687;SDS011;6916;51.504;7.416;2022-12-20T23:34:37;3.67;;;2.23;;
13687;SDS011;6916;51.504;7.416;2022-12-20T23:40:00;2.57;;;2.10;;
13687;SDS011;6916;51.504;7.416;2022-12-20T23:45:22;2.93;;;2.43;;
13687;SDS011;6916;51.504;7.416;2022-12-20T23:50:53;3.00;;;2.80;;
13687;SDS011;6916;51.504;7.416;2022-12-20T23:56:17;3.38;;;3.08;;
